Time;durP1;ratioP1;P1;durP2;ratioP2;P2;SDS_P1;SDS_P2;PMS_P1;PMS_P2;Temp;Humidity;BMP_temperature;BMP_pressure;BME280_temperature;BME280_humidity;BME280_pressure;Samples;Min_cycle;Max_cycle;Signal;HPM_P1;HPM_P2
2021/12/29 00:00:04;;;;;;;20.33;10.85;;;4.80;99.90;;;;;;5096144;28;20119;-78
2021/12/29 00:02:29;;;;;;;39.78;15.20;;;4.80;99.90;;;;;;5095529;28;20044;-79
2021/12/29 00:04:55;;;;;;;34.13;17.65;;;4.80;99.90;;;;;;5095904;28;20044;-78
2021/12/29 00:07:21;;;;;;;48.35;20.40;;;4.80;99.90;;;;;;5095928;28;20110;-79
2021/12/29 00:09:47;;;;;;;59.60;21.73;;;6.00;99.90;;;;;;5095991;28;20482;-79
2021/12/29 00:12:15;;;;;;;53.08;22.13;;;4.90;99.90;;;;;;5095919;28;20402;-80
2021/12/29 00:14:41;;;;;;;69.88;24.88;;;5.00;99.90;;;;;;5095827;28;20086;-79
2021/12/29 00:17:06;;;;;;;54.88;24.27;;;5.00;99.90;;;;;;5095786;28;20500;-79
2021/12/29 00:19:32;;;;;;;87.65;29.77;;;6.10;99.90;;;;;;5095628;28;20391;-78
2021/12/29 00:21:58;;;;;;;60.08;25.77;;;6.10;99.90;;;;;;5095540;28;20044;-79
2021/12/29 00:24:24;;;;;;;79.55;27.52;;;5.10;99.90;;;;;;5128556;27;20043;-78
2021/12/29 00:26:49;;;;;;;52.75;22.75;;;5.60;99.90;;;;;;5095609;28;20445;-79
2021/12/29 00:29:16;;;;;;;49.25;22.45;;;6.20;99.90;;;;;;5095586;28;20537;-78
2021/12/29 00:31:46;;;;;;;61.47;22.98;;;5.40;99.90;;;;;;5095215;28;20510;-79
2021/12/29 00:34:12;;;;;;;87.88;24.92;;;5.20;99.90;;;;;;5128141;27;20491;-78
2021/12/29 00:36:38;;;;;;;55.20;22.67;;;5.20;99.90;;;;;;5095020;28;20048;-77
2021/12/29 00:39:04;;;;;;;66.90;23.48;;;5.20;99.90;;;;;;5095756;28;20048;-78
2021/12/29 00:41:30;;;;;;;77.65;25.73;;;5.20;99.90;;;;;;5094248;28;20044;-78
2021/12/29 00:43:55;;;;;;;74.95;27.20;;;6.30;99.90;;;;;;5128537;27;20087;-79
2021/12/29 00:46:21;;;;;;;81.03;27.98;;;5.30;99.90;;;;;;5095226;28;20089;-78
2021/12/29 00:48:48;;;;;;;74.13;28.58;;;5.30;99.90;;;;;;5095044;28;20052;-78
2021/12/29 00:51:14;;;;;;;83.03;29.17;;;5.30;99.90;;;;;;5127859;27;20047;-79
2021/12/29 00:53:41;;;;;;;70.82;29.23;;;5.60;99.90;;;;;;5094887;28;20090;-79
2021/12/29 00:56:07;;;;;;;97.40;33.90;;;6.50;99.90;;;;;;5128265;27;20048;-78
2021/12/29 00:58:33;;;;;;;108.07;33.55;;;6.20;99.90;;;;;;5093849;28;20047;-77
2021/12/29 01:00:59;;;;;;;116.05;32.80;;;6.30;99.90;;;;;;5094919;28;20117;-78
2021/12/29 01:03:25;;;;;;;;;;;5.40;99.90;;;;;;5095261;28;20040;-77
2021/12/29 01:05:51;;;;;;;136.18;35.90;;;3.90;99.90;;;;;;5093565;28;19926;-79
2021/12/29 01:08:17;;;;;;;134.65;37.60;;;6.40;99.90;;;;;;5093700;28;20044;-78
2021/12/29 01:10:44;;;;;;;154.20;40.72;;;5.50;99.90;;;;;;5094751;28;20036;-81
2021/12/29 01:13:11;;;;;;;233.23;52.15;;;5.60;99.90;;;;;;5093157;28;20392;-78
2021/12/29 01:15:57;;;;;;;222.27;46.35;;;5.70;99.90;;;;;;5094690;28;20047;-78
2021/12/29 01:18:23;;;;;;;101.07;31.65;;;5.50;99.90;;;;;;5127863;27;20055;-78
2021/12/29 01:20:49;;;;;;;93.65;31.33;;;5.50;99.90;;;;;;5127343;27;20399;-79
2021/12/29 01:23:15;;;;;;;73.68;29.00;;;6.20;99.90;;;;;;5094609;28;20476;-78
2021/12/29 01:25:41;;;;;;;58.88;25.80;;;5.50;99.90;;;;;;5093048;28;20048;-79
2021/12/29 01:28:06;;;;;;;55.97;25.20;;;5.50;99.90;;;;;;5094520;28;20165;-79
2021/12/29 01:30:32;;;;;;;72.35;26.90;;;6.50;99.90;;;;;;5127244;27;20530;-80
2021/12/29 01:33:05;;;;;;;83.20;29.98;;;5.40;99.90;;;;;;5094185;28;20052;-79
2021/12/29 01:35:32;;;;;;;95.57;35.33;;;6.10;99.90;;;;;;5094098;28;20093;-78
2021/12/29 01:37:57;;;;;;;89.40;32.80;;;5.40;99.90;;;;;;5094300;28;20097;-79
2021/12/29 01:40:23;;;;;;;139.75;39.13;;;6.90;99.90;;;;;;5094229;28;20040;-79
2021/12/29 01:42:49;;;;;;;188.55;43.53;;;5.40;99.90;;;;;;5094205;28;20505;-79
2021/12/29 01:45:15;;;;;;;235.98;49.28;;;5.40;99.90;;;;;;5094090;28;20044;-80
2021/12/29 01:47:41;;;;;;;97.57;33.03;;;6.10;99.90;;;;;;5093920;28;20058;-79
2021/12/29 01:50:09;;;;;;;205.60;47.25;;;5.40;99.90;;;;;;5093718;28;20449;-79
2021/12/29 01:52:38;;;;;;;157.45;40.53;;;5.30;99.90;;;;;;5093986;28;20044;-79
2021/12/29 01:55:07;;;;;;;111.82;36.28;;;5.30;99.90;;;;;;5094029;28;20048;-79
2021/12/29 01:57:33;;;;;;;143.38;34.80;;;5.30;99.90;;;;;;5093925;28;20398;-79
2021/12/29 02:00:00;;;;;;;171.05;44.55;;;5.30;99.90;;;;;;5093846;28;20407;-79
2021/12/29 02:02:26;;;;;;;105.93;34.53;;;5.20;99.90;;;;;;5093675;28;20048;-80
2021/12/29 02:04:52;;;;;;;108.00;34.10;;;5.20;99.90;;;;;;5092661;28;20048;-80
2021/12/29 02:07:17;;;;;;;83.43;32.30;;;6.10;99.90;;;;;;5092717;28;20132;-79
2021/12/29 02:09:43;;;;;;;124.97;34.90;;;5.10;99.90;;;;;;5093813;28;20111;-79
2021/12/29 02:12:10;;;;;;;82.28;31.40;;;5.10;99.90;;;;;;5126789;27;20402;-79
2021/12/29 02:14:35;;;;;;;83.03;29.80;;;5.10;99.90;;;;;;5093596;28;20044;-79
2021/12/29 02:17:02;;;;;;;59.78;27.27;;;5.20;99.90;;;;;;5126798;27;20044;-81
2021/12/29 02:19:28;;;;;;;59.22;23.95;;;5.20;99.90;;;;;;5093500;28;20083;-81
2021/12/29 02:22:06;;;;;;;57.35;25.10;;;5.80;99.90;;;;;;5093287;28;20550;-79
2021/12/29 02:24:43;;;;;;;48.13;20.65;;;6.90;99.90;;;;;;5093515;28;20105;-80
2021/12/29 02:27:12;;;;;;;54.75;23.75;;;6.40;99.90;;;;;;5093490;28;20144;-79
2021/12/29 02:29:41;;;;;;;58.13;22.00;;;5.30;99.90;;;;;;5093416;28;20487;-79
2021/12/29 02:32:07;;;;;;;62.30;26.52;;;7.10;99.90;;;;;;5092918;28;20116;-81
2021/12/29 02:34:33;;;;;;;47.50;21.98;;;5.30;99.90;;;;;;5093448;28;20048;-79
2021/12/29 02:37:02;;;;;;;53.15;21.67;;;5.30;99.90;;;;;;5092201;28;20051;-79
2021/12/29 02:39:31;;;;;;;44.92;21.05;;;5.80;99.90;;;;;;5092079;28;20051;-80
2021/12/29 02:42:03;;;;;;;50.67;19.65;;;5.30;99.90;;;;;;5092155;28;20402;-80
2021/12/29 02:44:30;;;;;;;54.03;21.40;;;5.40;99.90;;;;;;5093283;28;20098;-80
2021/12/29 02:46:57;;;;;;;53.10;19.90;;;5.40;99.90;;;;;;5093065;28;20048;-79
2021/12/29 02:49:25;;;;;;;73.13;23.75;;;6.10;99.90;;;;;;5093336;28;20048;-79
2021/12/29 02:51:52;;;;;;;64.50;24.35;;;5.40;99.90;;;;;;5091933;28;20072;-80
2021/12/29 02:54:18;;;;;;;70.13;24.65;;;7.00;99.90;;;;;;5126282;28;20054;-81
2021/12/29 02:56:48;;;;;;;76.88;22.33;;;5.40;99.90;;;;;;5126338;28;20548;-82
2021/12/29 02:59:14;;;;;;;73.72;25.63;;;6.10;99.90;;;;;;5091897;28;20044;-79
2021/12/29 03:01:40;;;;;;;;;;;6.30;99.90;;;;;;5092065;28;20078;-80
2021/12/29 03:04:07;;;;;;;120.90;31.38;;;5.40;99.90;;;;;;5093232;28;19970;-80
2021/12/29 03:06:34;;;;;;;128.15;31.45;;;5.30;99.90;;;;;;5093107;28;20051;-80
2021/12/29 03:09:04;;;;;;;154.95;34.20;;;5.30;99.90;;;;;;5093063;28;20388;-79
2021/12/29 03:11:30;;;;;;;261.88;40.15;;;6.60;99.90;;;;;;5092984;28;20044;-79
2021/12/29 03:13:56;;;;;;;163.40;33.33;;;6.80;99.90;;;;;;5092960;28;20044;-80
2021/12/29 03:16:22;;;;;;;179.15;36.13;;;5.30;99.90;;;;;;5092908;28;20050;-82
2021/12/29 03:18:48;;;;;;;156.55;32.92;;;5.20;99.90;;;;;;5093099;28;20372;-80
2021/12/29 03:21:14;;;;;;;139.90;30.13;;;6.10;99.90;;;;;;5092964;28;20051;-80
2021/12/29 03:23:40;;;;;;;164.32;32.03;;;5.20;99.90;;;;;;5092985;28;20491;-79
2021/12/29 03:26:08;;;;;;;145.98;30.02;;;5.20;99.90;;;;;;5092868;28;20048;-79
2021/12/29 03:28:35;;;;;;;194.40;35.83;;;5.10;99.90;;;;;;5126075;28;20052;-79
2021/12/29 03:31:01;;;;;;;169.00;31.40;;;6.30;99.90;;;;;;5092482;28;20098;-82
2021/12/29 03:33:31;;;;;;;135.18;24.88;;;5.90;99.90;;;;;;5092892;28;20109;-79
2021/12/29 03:36:03;;;;;;;217.23;38.28;;;6.60;99.90;;;;;;5092799;28;20705;-80
2021/12/29 03:38:33;;;;;;;184.15;34.67;;;6.00;99.90;;;;;;5095640;28;20040;-80
2021/12/29 03:40:59;;;;;;;208.65;35.67;;;6.00;99.90;;;;;;5096428;28;20051;-80
2021/12/29 03:43:27;;;;;;;205.52;36.95;;;5.10;99.90;;;;;;5095272;28;20059;-79
2021/12/29 03:45:54;;;;;;;165.98;35.22;;;5.10;99.90;;;;;;5096209;28;20506;-80
2021/12/29 03:48:23;;;;;;;164.30;34.88;;;5.70;99.90;;;;;;5096457;28;20048;-80
2021/12/29 03:50:48;;;;;;;248.35;41.17;;;5.20;99.90;;;;;;5096158;28;20052;-79
2021/12/29 03:53:15;;;;;;;179.82;35.38;;;5.30;99.90;;;;;;5096271;28;20548;-81
2021/12/29 03:55:42;;;;;;;153.25;36.58;;;5.50;99.90;;;;;;5096157;28;20055;-79
2021/12/29 03:58:09;;;;;;;112.72;29.70;;;6.00;99.90;;;;;;5094950;28;20040;-81
2021/12/29 04:00:34;;;;;;;85.55;27.35;;;6.60;99.90;;;;;;5096002;28;20040;-79
2021/12/29 04:03:00;;;;;;;70.35;24.42;;;5.80;99.90;;;;;;5096086;28;20475;-80
2021/12/29 04:05:27;;;;;;;76.57;23.50;;;5.20;99.90;;;;;;5095185;28;20043;-82
2021/12/29 04:07:53;;;;;;;74.35;26.30;;;5.20;99.90;;;;;;5094875;28;20113;-81
2021/12/29 04:10:20;;;;;;;61.78;21.13;;;5.30;99.90;;;;;;5095811;28;20093;-80
2021/12/29 04:12:45;;;;;;;;;;;6.20;99.90;;;;;;5129340;27;20047;-83
2021/12/29 04:15:13;;;;;;;80.90;24.80;;;5.00;99.90;;;;;;5095646;28;19920;-79
2021/12/29 04:17:40;;;;;;;76.03;24.08;;;5.80;99.90;;;;;;5095906;28;20083;-80
2021/12/29 04:22:54;;;;;;;76.00;26.50;;;5.50;99.90;;;;;;5095618;28;20185;-80
2021/12/29 04:25:24;;;;;;;86.93;25.98;;;6.00;99.90;;;;;;5095524;28;20044;-79
2021/12/29 04:27:54;;;;;;;104.63;28.23;;;6.90;99.90;;;;;;5095411;28;20052;-82
2021/12/29 04:30:22;;;;;;;85.07;26.00;;;5.50;99.90;;;;;;5094588;28;20044;-79
2021/12/29 04:32:48;;;;;;;106.03;28.15;;;6.90;99.90;;;;;;5095117;28;20502;-82
2021/12/29 04:35:14;;;;;;;95.15;25.08;;;5.50;99.90;;;;;;5077155;28;20098;-79
2021/12/29 04:37:40;;;;;;;88.22;25.23;;;5.50;99.90;;;;;;5128253;27;20048;-79
2021/12/29 04:40:07;;;;;;;84.32;26.15;;;5.90;99.90;;;;;;5095274;28;20457;-80
2021/12/29 04:42:33;;;;;;;87.65;24.60;;;5.50;99.90;;;;;;5095153;28;20040;-79
2021/12/29 04:44:59;;;;;;;102.80;27.20;;;5.60;99.90;;;;;;5077412;28;20084;-79
2021/12/29 04:47:29;;;;;;;87.70;25.65;;;6.40;99.90;;;;;;5095267;28;20083;-81
2021/12/29 04:49:58;;;;;;;97.83;25.80;;;6.90;99.90;;;;;;5093910;28;20048;-83
2021/12/29 04:52:24;;;;;;;72.20;21.30;;;5.60;99.90;;;;;;5095440;28;20044;-80
2021/12/29 04:54:50;;;;;;;83.35;23.13;;;7.30;99.90;;;;;;5095074;28;20047;-80
2021/12/29 04:57:16;;;;;;;72.10;22.03;;;5.60;99.90;;;;;;5094856;28;20040;-78
2021/12/29 04:59:41;;;;;;;90.35;24.95;;;5.60;99.90;;;;;;5095115;28;20763;-81
2021/12/29 05:02:09;;;;;;;67.72;21.73;;;6.80;99.90;;;;;;5094974;28;20118;-79
2021/12/29 05:04:44;;;;;;;78.30;22.23;;;5.60;99.90;;;;;;5094866;28;20122;-80
2021/12/29 05:09:55;;;;;;;90.32;23.27;;;6.90;99.90;;;;;;5094518;28;20145;-80
2021/12/29 05:12:21;;;;;;;74.15;22.73;;;6.00;99.90;;;;;;5094790;28;20060;-82
2021/12/29 05:14:47;;;;;;;82.55;25.58;;;6.50;99.90;;;;;;5094700;28;20052;-80
2021/12/29 05:17:12;;;;;;;108.53;26.63;;;5.70;99.90;;;;;;5093715;28;20044;-79
2021/12/29 05:19:38;;;;;;;138.53;33.77;;;5.80;99.90;;;;;;5094589;28;20040;-80
2021/12/29 05:22:04;;;;;;;115.90;31.20;;;5.80;99.90;;;;;;5093372;28;20286;-80
2021/12/29 05:24:30;;;;;;;134.85;33.03;;;7.10;99.90;;;;;;5093365;28;20048;-79
2021/12/29 05:26:56;;;;;;;113.50;32.10;;;5.80;99.90;;;;;;5093291;28;20055;-81
2021/12/29 05:29:22;;;;;;;133.80;35.20;;;5.80;99.90;;;;;;5093351;28;20521;-80
2021/12/29 05:31:48;;;;;;;142.48;36.15;;;5.90;99.90;;;;;;5093932;28;20055;-81
2021/12/29 05:34:14;;;;;;;120.85;35.78;;;7.40;99.90;;;;;;5093302;28;20059;-83
2021/12/29 05:36:40;;;;;;;117.95;37.08;;;6.40;99.90;;;;;;5093023;28;20036;-79
2021/12/29 05:39:06;;;;;;;122.65;34.65;;;5.90;99.90;;;;;;5094040;28;20036;-81
2021/12/29 05:41:32;;;;;;;153.43;38.55;;;5.90;99.90;;;;;;5094372;28;20047;-79
2021/12/29 05:43:58;;;;;;;160.05;44.45;;;6.00;99.90;;;;;;5093106;28;20445;-80
2021/12/29 05:46:23;;;;;;;137.43;33.72;;;6.30;99.90;;;;;;5093065;28;20052;-81
2021/12/29 05:48:49;;;;;;;167.70;43.83;;;6.00;99.90;;;;;;5093986;28;20036;-80
2021/12/29 05:51:15;;;;;;;156.25;46.08;;;7.00;99.90;;;;;;5093912;28;20036;-81
2021/12/29 05:53:41;;;;;;;168.35;45.95;;;6.10;99.90;;;;;;5093797;28;20055;-79
2021/12/29 05:56:08;;;;;;;169.10;42.85;;;6.10;99.90;;;;;;5126836;27;20522;-80
2021/12/29 05:58:35;;;;;;;135.38;44.88;;;6.10;99.90;;;;;;5109956;28;20127;-79
2021/12/29 06:01:01;;;;;;;180.45;43.28;;;6.10;99.90;;;;;;5093533;28;20085;-81
2021/12/29 06:03:27;;;;;;;175.52;47.08;;;6.10;99.90;;;;;;5092325;28;20052;-80
2021/12/29 06:05:53;;;;;;;182.48;50.08;;;7.40;99.90;;;;;;5093365;28;20084;-82
2021/12/29 06:08:19;;;;;;;187.55;51.28;;;6.80;99.90;;;;;;5093663;28;20087;-80
2021/12/29 06:10:45;;;;;;;215.88;51.92;;;6.10;99.90;;;;;;5092094;28;20115;-80
2021/12/29 06:13:11;;;;;;;187.38;47.90;;;6.10;99.90;;;;;;5093442;28;20051;-79
2021/12/29 06:15:37;;;;;;;199.65;51.47;;;6.10;99.90;;;;;;5093449;28;20395;-79
2021/12/29 06:18:03;;;;;;;187.23;49.60;;;7.50;99.90;;;;;;5093334;28;20040;-78
2021/12/29 06:20:29;;;;;;;;;;;6.10;99.90;;;;;;5127055;27;20081;-79
2021/12/29 06:22:55;;;;;;;205.43;53.40;;;6.20;99.90;;;;;;5093104;28;19924;-80
2021/12/29 06:25:20;;;;;;;213.48;50.67;;;7.60;99.90;;;;;;5093008;28;20402;-78
2021/12/29 06:27:46;;;;;;;228.07;51.80;;;6.20;99.90;;;;;;5093305;28;20384;-81
2021/12/29 06:30:15;;;;;;;220.60;52.97;;;6.10;99.90;;;;;;5093119;28;20048;-80
2021/12/29 06:32:42;;;;;;;218.40;54.95;;;6.10;99.90;;;;;;5092782;28;20563;-83
2021/12/29 06:35:09;;;;;;;196.80;51.13;;;7.60;99.90;;;;;;5093001;28;20040;-80
2021/12/29 06:37:35;;;;;;;151.75;43.88;;;6.20;99.90;;;;;;5093080;28;20189;-79
2021/12/29 06:40:01;;;;;;;162.73;44.35;;;6.20;99.90;;;;;;5091535;28;20575;-80
2021/12/29 06:42:26;;;;;;;166.25;43.20;;;6.20;99.90;;;;;;5093193;28;20090;-80
2021/12/29 06:44:53;;;;;;;160.55;45.95;;;6.20;99.90;;;;;;5093118;28;20105;-81
2021/12/29 06:47:19;;;;;;;166.52;43.50;;;6.20;99.90;;;;;;5092957;28;20044;-82
2021/12/29 06:49:44;;;;;;;180.80;47.28;;;6.20;99.90;;;;;;5092877;28;20051;-81
2021/12/29 06:52:10;;;;;;;165.48;40.65;;;6.60;99.90;;;;;;5125621;28;20048;-80
2021/12/29 06:54:36;;;;;;;158.90;45.75;;;6.20;99.90;;;;;;5091806;28;20476;-80
2021/12/29 06:57:03;;;;;;;168.82;43.17;;;6.20;99.90;;;;;;5092753;28;20089;-80
2021/12/29 06:59:29;;;;;;;156.98;43.60;;;6.20;99.90;;;;;;5092997;28;20079;-80
2021/12/29 07:01:56;;;;;;;131.27;40.63;;;6.20;99.90;;;;;;5092854;28;20044;-80
2021/12/29 07:04:25;;;;;;;247.77;51.67;;;6.20;99.90;;;;;;5092749;28;20044;-81
2021/12/29 07:06:52;;;;;;;200.75;50.35;;;6.80;99.90;;;;;;5092668;28;20063;-80
2021/12/29 07:09:19;;;;;;;172.57;44.85;;;6.70;99.90;;;;;;5091272;28;20059;-82
2021/12/29 07:11:45;;;;;;;207.90;53.22;;;7.20;99.90;;;;;;5091799;28;20048;-83
2021/12/29 07:14:11;;;;;;;358.90;74.68;;;7.40;99.90;;;;;;5095880;28;20100;-79
2021/12/29 07:16:38;;;;;;;498.42;85.90;;;6.10;99.90;;;;;;5096551;28;20048;-80
2021/12/29 07:19:05;;;;;;;444.73;77.35;;;6.10;99.90;;;;;;5096623;28;20043;-81
2021/12/29 07:21:31;;;;;;;446.90;74.50;;;6.00;99.90;;;;;;5096462;28;20372;-80
2021/12/29 07:23:57;;;;;;;304.98;56.17;;;6.00;99.90;;;;;;5095549;28;20434;-83
2021/12/29 07:26:23;;;;;;;254.52;53.05;;;6.40;99.90;;;;;;5096255;28;20044;-81
2021/12/29 07:28:51;;;;;;;317.95;60.70;;;5.90;99.90;;;;;;5094146;28;20052;-80
2021/12/29 07:31:17;;;;;;;270.23;58.80;;;7.40;99.90;;;;;;5096053;28;20388;-82
2021/12/29 07:33:43;;;;;;;188.48;44.53;;;7.00;99.90;;;;;;5096175;28;20055;-83
2021/12/29 07:36:12;;;;;;;207.70;50.42;;;6.00;99.90;;;;;;5095338;28;20055;-81
2021/12/29 07:38:39;;;;;;;326.33;68.00;;;6.30;99.90;;;;;;5096322;28;20380;-79
2021/12/29 07:41:05;;;;;;;378.00;74.35;;;6.00;99.90;;;;;;5096333;28;20068;-80
2021/12/29 07:43:31;;;;;;;419.33;81.18;;;5.90;99.90;;;;;;5096222;28;20463;-79
2021/12/29 07:45:56;;;;;;;315.35;63.28;;;6.00;99.90;;;;;;5096450;28;20089;-80
2021/12/29 07:48:27;;;;;;;431.45;84.40;;;7.70;99.90;;;;;;5096269;28;20048;-80
2021/12/29 07:50:53;;;;;;;429.45;87.57;;;5.90;99.90;;;;;;5096111;28;20105;-80
2021/12/29 07:53:20;;;;;;;335.15;67.70;;;5.90;99.90;;;;;;5096053;28;20044;-81
2021/12/29 07:55:45;;;;;;;;;;;6.00;99.90;;;;;;5096458;28;20494;-80
2021/12/29 07:58:11;;;;;;;210.05;56.60;;;6.00;99.90;;;;;;5096239;28;19935;-81
2021/12/29 08:00:37;;;;;;;182.70;50.83;;;6.70;99.90;;;;;;5095153;28;20052;-80
2021/12/29 08:03:03;;;;;;;230.82;60.53;;;6.00;99.90;;;;;;5095104;28;20051;-79
2021/12/29 08:05:28;;;;;;;216.88;54.22;;;6.00;99.90;;;;;;5128836;27;20052;-80
2021/12/29 08:07:54;;;;;;;219.75;58.05;;;4.70;99.90;;;;;;5128605;27;20071;-80
2021/12/29 08:10:20;;;;;;;192.70;52.70;;;7.10;99.90;;;;;;5128880;27;20040;-80
2021/12/29 08:12:47;;;;;;;271.08;67.65;;;6.70;99.90;;;;;;5095022;28;20055;-81
2021/12/29 08:15:13;;;;;;;207.85;59.25;;;6.30;99.90;;;;;;5095837;28;20052;-80
2021/12/29 08:17:40;;;;;;;266.02;61.28;;;7.00;99.90;;;;;;5095657;28;20134;-79
2021/12/29 08:20:07;;;;;;;207.93;53.78;;;6.30;99.90;;;;;;5095692;28;20094;-79
2021/12/29 08:22:32;;;;;;;211.82;55.30;;;6.30;99.90;;;;;;5095351;28;20061;-80
2021/12/29 08:24:59;;;;;;;175.32;50.00;;;6.30;99.90;;;;;;5095449;28;20044;-80
2021/12/29 08:27:24;;;;;;;220.90;56.80;;;6.70;99.90;;;;;;5095705;28;20445;-80
2021/12/29 08:29:50;;;;;;;181.63;48.95;;;7.20;99.90;;;;;;5095434;28;20036;-82
2021/12/29 08:32:16;;;;;;;246.52;57.00;;;7.20;99.90;;;;;;5095380;28;20056;-80
2021/12/29 08:34:42;;;;;;;164.20;46.38;;;6.40;99.90;;;;;;5095206;28;20050;-80
2021/12/29 08:37:08;;;;;;;302.60;63.80;;;6.40;99.90;;;;;;5128359;27;20074;-80
2021/12/29 08:39:34;;;;;;;170.55;46.25;;;7.20;99.90;;;;;;5095237;28;20055;-79
2021/12/29 08:42:00;;;;;;;218.45;51.08;;;6.50;99.90;;;;;;5095164;28;20075;-81
2021/12/29 08:44:25;;;;;;;184.70;48.15;;;6.50;99.90;;;;;;5095282;28;20131;-79
2021/12/29 08:46:51;;;;;;;254.52;57.05;;;6.50;99.90;;;;;;5095392;28;20047;-80
2021/12/29 08:49:17;;;;;;;224.93;53.80;;;7.90;99.90;;;;;;5128253;27;20113;-80
2021/12/29 08:51:43;;;;;;;208.73;48.35;;;7.40;99.90;;;;;;5094968;28;20048;-80
2021/12/29 08:54:09;;;;;;;236.00;56.70;;;6.60;99.90;;;;;;5093777;28;20442;-79
2021/12/29 08:56:35;;;;;;;164.65;47.47;;;6.60;99.90;;;;;;5093641;28;20135;-81
2021/12/29 08:59:01;;;;;;;228.68;54.00;;;7.90;99.90;;;;;;5094653;28;20493;-80
2021/12/29 09:01:27;;;;;;;180.15;47.75;;;7.70;99.90;;;;;;5094928;28;20123;-78
2021/12/29 09:03:53;;;;;;;165.52;46.13;;;6.60;99.90;;;;;;5093643;28;20044;-79
2021/12/29 09:06:19;;;;;;;156.25;47.25;;;6.60;99.90;;;;;;5094921;28;20059;-79
2021/12/29 09:08:46;;;;;;;169.45;47.78;;;7.70;99.90;;;;;;5127764;27;20045;-80
2021/12/29 09:11:13;;;;;;;155.95;45.92;;;6.60;99.90;;;;;;5127479;27;20105;-79
2021/12/29 09:13:39;;;;;;;168.82;44.55;;;6.60;99.90;;;;;;5093690;28;20067;-80
2021/12/29 09:16:06;;;;;;;168.88;43.50;;;6.60;99.90;;;;;;5094751;28;20055;-79
2021/12/29 09:18:33;;;;;;;177.55;44.83;;;6.60;99.90;;;;;;5094518;28;20040;-79
2021/12/29 09:21:06;;;;;;;182.15;43.40;;;6.60;99.90;;;;;;5094563;28;20055;-79
2021/12/29 09:23:35;;;;;;;211.98;53.63;;;6.60;99.90;;;;;;5094309;28;20044;-78
2021/12/29 09:26:01;;;;;;;189.43;46.15;;;6.60;99.90;;;;;;5094346;28;20406;-76
2021/12/29 09:28:27;;;;;;;157.25;41.63;;;7.20;99.90;;;;;;5094469;28;20039;-78
2021/12/29 09:30:53;;;;;;;171.25;40.15;;;6.60;99.90;;;;;;5127161;27;20047;-78
2021/12/29 09:33:22;;;;;;;167.07;42.90;;;6.60;99.90;;;;;;5094342;28;20139;-79
2021/12/29 09:35:51;;;;;;;149.00;40.47;;;7.50;99.90;;;;;;5092227;28;20040;-80
2021/12/29 09:38:18;;;;;;;142.30;39.47;;;6.60;99.90;;;;;;5127356;27;20475;-79
2021/12/29 09:40:46;;;;;;;133.80;38.92;;;6.60;99.90;;;;;;5127297;27;20070;-79
2021/12/29 09:43:11;;;;;;;138.02;39.75;;;6.60;99.90;;;;;;5094273;28;20113;-78
2021/12/29 09:45:39;;;;;;;123.75;39.15;;;6.60;99.90;;;;;;5127325;27;20048;-79
2021/12/29 09:48:05;;;;;;;141.68;39.30;;;6.60;99.90;;;;;;5094025;28;20079;-80
2021/12/29 09:50:31;;;;;;;113.22;36.50;;;8.20;99.90;;;;;;5093971;28;20082;-78
2021/12/29 09:52:57;;;;;;;;;;;6.70;99.90;;;;;;5093061;28;20044;-78
2021/12/29 09:55:23;;;;;;;135.75;34.33;;;7.80;99.90;;;;;;5092802;28;19945;-79
2021/12/29 09:57:51;;;;;;;154.70;39.45;;;6.90;99.90;;;;;;5092717;28;20131;-80
2021/12/29 10:00:38;;;;;;;152.93;39.63;;;6.80;99.90;;;;;;5093658;28;20054;-78
2021/12/29 10:03:08;;;;;;;125.95;37.58;;;6.80;99.90;;;;;;5092470;28;20039;-78
2021/12/29 10:05:35;;;;;;;91.13;29.20;;;7.20;99.90;;;;;;5093670;28;20052;-78
2021/12/29 10:08:05;;;;;;;113.45;33.22;;;6.90;99.90;;;;;;5093614;28;20101;-79
2021/12/29 10:10:34;;;;;;;90.97;31.17;;;6.90;99.90;;;;;;5092483;28;20154;-79
2021/12/29 10:13:01;;;;;;;80.28;25.80;;;7.50;99.90;;;;;;5093615;28;20036;-77
2021/12/29 10:15:39;;;;;;;92.20;27.40;;;6.90;99.90;;;;;;5093641;28;20051;-79
2021/12/29 10:18:09;;;;;;;68.30;23.52;;;6.90;99.90;;;;;;5093546;28;20053;-78
2021/12/29 10:20:56;;;;;;;61.40;22.45;;;6.90;99.90;;;;;;5092449;28;20505;-78
2021/12/29 10:23:22;;;;;;;;;;;7.00;99.90;;;;;;5093935;28;20455;-78
2021/12/29 10:25:49;;;;;;;74.57;22.55;;;7.00;99.90;;;;;;5092438;28;19985;-78
2021/12/29 10:28:26;;;;;;;72.63;23.73;;;7.00;99.90;;;;;;5075467;28;20047;-79
2021/12/29 10:31:00;;;;;;;75.85;24.70;;;7.00;99.90;;;;;;5092959;28;20067;-79
2021/12/29 10:33:38;;;;;;;88.93;28.50;;;7.00;99.90;;;;;;5093552;28;20138;-78
2021/12/29 10:36:27;;;;;;;98.93;26.90;;;7.10;99.90;;;;;;5093345;28;20039;-77
2021/12/29 10:39:06;;;;;;;90.60;29.10;;;7.10;99.90;;;;;;5093135;28;20097;-81
2021/12/29 10:41:55;;;;;;;101.80;28.60;;;7.10;99.90;;;;;;5092791;28;20494;-78
2021/12/29 10:44:27;;;;;;;82.55;27.98;;;7.10;99.90;;;;;;5093270;28;20402;-80
2021/12/29 10:46:56;;;;;;;85.30;28.75;;;7.10;99.90;;;;;;5093602;28;20044;-80
2021/12/29 10:49:25;;;;;;;80.15;27.15;;;7.20;99.90;;;;;;5097274;28;20044;-81
2021/12/29 10:52:06;;;;;;;99.07;32.80;;;7.20;99.90;;;;;;5096994;28;20399;-79
2021/12/29 10:54:32;;;;;;;96.28;32.95;;;7.60;99.90;;;;;;5096309;28;20469;-81
2021/12/29 10:57:07;;;;;;;108.10;34.38;;;7.20;99.90;;;;;;5097048;28;20118;-79
2021/12/29 10:59:41;;;;;;;97.88;27.38;;;7.20;99.90;;;;;;5129720;27;20052;-78
2021/12/29 11:02:09;;;;;;;91.35;28.70;;;7.20;99.90;;;;;;5097034;28;20369;-79
2021/12/29 11:04:37;;;;;;;97.80;33.22;;;7.30;99.90;;;;;;5096666;28;20054;-79
2021/12/29 11:07:10;;;;;;;111.25;33.63;;;7.30;99.90;;;;;;5095462;28;20044;-79
2021/12/29 11:09:37;;;;;;;143.10;49.15;;;7.30;99.90;;;;;;5096847;28;20403;-77
2021/12/29 11:12:15;;;;;;;99.05;31.23;;;8.40;99.90;;;;;;5096164;28;20040;-79
2021/12/29 11:14:45;;;;;;;84.57;27.35;;;7.30;99.90;;;;;;5096414;28;20456;-79
2021/12/29 11:17:30;;;;;;;102.43;33.80;;;7.30;99.90;;;;;;5096733;28;20073;-79
2021/12/29 11:19:59;;;;;;;77.78;26.27;;;7.40;99.90;;;;;;5096788;28;20097;-81
2021/12/29 11:22:28;;;;;;;62.05;24.42;;;7.40;99.90;;;;;;5096718;28;20039;-79
2021/12/29 11:25:04;;;;;;;66.65;23.48;;;7.40;99.90;;;;;;5096611;28;20557;-79
2021/12/29 11:27:32;;;;;;;53.75;19.55;;;7.40;99.90;;;;;;5095035;28;20048;-78
2021/12/29 11:30:12;;;;;;;55.28;20.23;;;7.50;99.90;;;;;;5096035;28;20048;-79
2021/12/29 11:32:43;;;;;;;56.38;19.67;;;7.50;99.90;;;;;;5128909;27;20062;-77
2021/12/29 11:35:24;;;;;;;49.95;19.45;;;7.50;99.90;;;;;;5096094;28;20098;-78
2021/12/29 11:37:56;;;;;;;44.72;17.75;;;7.50;99.90;;;;;;5095604;28;20048;-79
2021/12/29 11:40:30;;;;;;;44.95;16.60;;;7.50;99.90;;;;;;5129074;27;20056;-80
2021/12/29 11:42:57;;;;;;;41.75;16.77;;;7.50;99.90;;;;;;5129202;27;20089;-79
2021/12/29 11:45:25;;;;;;;41.90;16.63;;;7.50;99.90;;;;;;5096014;28;20541;-80
2021/12/29 11:47:52;;;;;;;33.63;13.30;;;7.50;99.90;;;;;;5095953;28;20040;-80
2021/12/29 11:50:30;;;;;;;30.98;14.38;;;7.50;99.90;;;;;;5095721;28;20523;-78
2021/12/29 11:53:10;;;;;;;26.80;11.52;;;7.50;99.90;;;;;;5095412;28;20048;-80
2021/12/29 11:55:49;;;;;;;35.72;14.77;;;7.50;99.90;;;;;;5095829;28;20070;-79
2021/12/29 11:58:19;;;;;;;32.08;13.20;;;7.50;99.90;;;;;;5094921;28;20048;-78
2021/12/29 12:00:47;;;;;;;34.97;12.75;;;7.50;99.90;;;;;;5095415;28;20047;-80
2021/12/29 12:03:16;;;;;;;25.52;12.30;;;7.50;99.90;;;;;;5095665;28;20048;-78
2021/12/29 12:05:48;;;;;;;30.83;14.75;;;7.50;99.90;;;;;;5095639;28;20505;-79
2021/12/29 12:08:23;;;;;;;32.88;14.80;;;7.50;99.90;;;;;;5095379;28;20048;-80
2021/12/29 12:10:50;;;;;;;39.47;17.95;;;7.50;99.90;;;;;;5093962;28;20056;-80
2021/12/29 12:13:36;;;;;;;40.33;16.83;;;7.60;99.90;;;;;;5095207;28;20380;-79
2021/12/29 12:16:10;;;;;;;37.30;16.38;;;7.50;99.90;;;;;;5095170;28;20131;-79
2021/12/29 12:18:51;;;;;;;36.33;19.70;;;7.50;99.90;;;;;;5095337;28;20055;-78
2021/12/29 12:21:41;;;;;;;43.03;20.73;;;7.60;99.90;;;;;;5095232;28;20037;-80
2021/12/29 12:24:17;;;;;;;35.05;16.10;;;8.80;99.90;;;;;;5095010;28;20048;-79
2021/12/29 12:26:58;;;;;;;40.55;17.52;;;7.60;99.90;;;;;;5128291;27;20121;-79
2021/12/29 12:29:30;;;;;;;26.20;14.32;;;7.60;99.90;;;;;;5095106;28;20101;-79
2021/12/29 12:32:05;;;;;;;39.88;23.30;;;7.60;99.90;;;;;;5094972;28;20060;-79
2021/12/29 12:34:32;;;;;;;32.45;16.52;;;7.60;99.90;;;;;;5094844;28;20052;-78
2021/12/29 12:37:00;;;;;;;33.03;16.48;;;7.60;99.90;;;;;;5094507;28;20081;-79
2021/12/29 12:39:28;;;;;;;35.35;14.60;;;7.60;99.90;;;;;;5093763;28;20437;-79
2021/12/29 12:41:56;;;;;;;34.15;14.63;;;7.60;99.90;;;;;;5094759;28;20040;-79